createdAt,value
2019-05-14T00:00:21.614Z,3.47
2019-05-14T00:02:49.006Z,3.02
2019-05-14T00:05:16.042Z,3.65
2019-05-14T00:07:43.143Z,3.27
2019-05-14T00:10:11.928Z,2.95
2019-05-14T00:12:39.210Z,3.33
2019-05-14T00:15:06.534Z,3.08
2019-05-14T00:17:33.760Z,2.90
2019-05-14T00:20:07.421Z,3.35
2019-05-14T00:22:31.904Z,2.85
2019-05-14T00:25:01.131Z,3.12
2019-05-14T00:27:28.530Z,2.80
2019-05-14T00:29:55.475Z,3.25
2019-05-14T00:32:22.467Z,3.22
2019-05-14T00:34:51.637Z,3.20
2019-05-14T00:37:18.462Z,3.20
2019-05-14T00:39:46.023Z,3.25
2019-05-14T00:42:13.006Z,2.80
2019-05-14T00:44:51.611Z,3.87
2019-05-14T00:47:11.153Z,3.50
2019-05-14T00:49:37.989Z,3.30
2019-05-14T00:52:05.110Z,3.65
2019-05-14T00:54:32.361Z,3.40
2019-05-14T00:57:01.453Z,3.30
2019-05-14T00:59:28.279Z,3.60
2019-05-14T01:01:55.930Z,3.52
2019-05-14T01:04:23.413Z,3.45
2019-05-14T01:06:51.118Z,3.50
2019-05-14T01:09:18.413Z,3.50
2019-05-14T01:11:45.839Z,3.80
2019-05-14T01:14:13.238Z,3.60
2019-05-14T01:16:42.272Z,3.42
2019-05-14T01:19:09.518Z,3.85
2019-05-14T01:21:37.070Z,3.30
2019-05-14T01:24:04.367Z,3.65
2019-05-14T01:26:31.372Z,3.05
2019-05-14T01:28:58.437Z,3.58
2019-05-14T01:31:25.391Z,3.33
2019-05-14T01:33:52.510Z,3.35
2019-05-14T01:36:21.522Z,4.35
2019-05-14T01:38:51.100Z,3.62
2019-05-14T01:41:17.924Z,3.55
2019-05-14T01:43:45.543Z,4.17
2019-05-14T01:46:12.856Z,3.90
2019-05-14T01:48:41.741Z,3.95
2019-05-14T01:51:11.723Z,3.85
2019-05-14T01:53:38.236Z,3.60
2019-05-14T01:56:05.359Z,3.65
2019-05-14T01:58:32.402Z,3.80
2019-05-14T02:01:02.008Z,4.00
2019-05-14T02:03:28.867Z,3.90
2019-05-14T02:05:56.176Z,3.70
2019-05-14T02:08:23.390Z,3.75
2019-05-14T02:10:52.618Z,3.83
2019-05-14T02:13:21.406Z,4.42
2019-05-14T02:15:48.449Z,3.92
2019-05-14T02:18:15.429Z,3.52
2019-05-14T02:20:42.586Z,3.90
2019-05-14T02:23:11.841Z,4.45
2019-05-14T02:25:38.598Z,4.25
2019-05-14T02:28:06.347Z,4.40
2019-05-14T02:30:48.128Z,4.58
2019-05-14T02:33:02.321Z,5.05
2019-05-14T02:35:29.979Z,3.92
2019-05-14T02:37:59.626Z,3.58
2019-05-14T02:40:29.286Z,4.50
2019-05-14T02:42:59.031Z,4.28
2019-05-14T02:45:24.662Z,4.12
2019-05-14T02:47:51.642Z,4.05
2019-05-14T02:50:20.209Z,4.12
2019-05-14T02:52:49.572Z,4.30
2019-05-14T02:55:19.405Z,3.90
2019-05-14T02:57:49.830Z,4.53
2019-05-14T03:00:19.339Z,4.05
2019-05-14T03:02:45.655Z,4.53
2019-05-14T03:05:12.869Z,4.08
2019-05-14T03:07:39.952Z,4.70
2019-05-14T03:10:09.954Z,4.62
2019-05-14T03:12:39.558Z,4.45
2019-05-14T03:15:09.661Z,4.22
2019-05-14T03:17:40.074Z,4.80
2019-05-14T03:20:08.860Z,4.17
2019-05-14T03:22:47.094Z,4.28
2019-05-14T03:25:04.804Z,4.42
2019-05-14T03:27:31.822Z,4.33
2019-05-14T03:29:59.165Z,5.00
2019-05-14T03:32:26.355Z,4.90
2019-05-14T03:34:54.367Z,4.67
2019-05-14T03:37:23.044Z,4.78
2019-05-14T03:39:51.067Z,4.60
2019-05-14T03:42:19.382Z,4.70
2019-05-14T03:44:49.027Z,4.80
2019-05-14T03:47:15.743Z,4.30
2019-05-14T03:49:42.976Z,4.72
2019-05-14T03:52:11.312Z,5.05
2019-05-14T03:54:40.676Z,4.70
2019-05-14T03:57:09.527Z,4.78
2019-05-14T03:59:40.190Z,5.17
2019-05-14T04:02:09.746Z,4.15
2019-05-14T04:04:39.378Z,4.53
2019-05-14T04:07:09.805Z,4.50
2019-05-14T04:09:40.043Z,6.75
2019-05-14T04:12:09.955Z,6.85
2019-05-14T04:14:41.266Z,4.80
2019-05-14T04:17:15.195Z,7.33
2019-05-14T04:19:42.433Z,7.90
2019-05-14T04:22:12.380Z,9.83
2019-05-14T04:24:41.746Z,5.83
2019-05-14T04:27:12.789Z,8.43
2019-05-14T04:29:39.817Z,6.55
2019-05-14T04:32:09.451Z,5.83
2019-05-14T04:34:39.756Z,9.35
2019-05-14T04:37:09.723Z,5.90
2019-05-14T04:39:39.235Z,3.80
2019-05-14T04:42:04.883Z,13.00
2019-05-14T04:44:32.616Z,11.10
2019-05-14T04:47:20.213Z,9.68
2019-05-14T04:49:29.694Z,6.20
2019-05-14T04:51:59.490Z,5.65
2019-05-14T04:54:30.338Z,4.80
2019-05-14T04:56:59.683Z,3.80
2019-05-14T04:59:25.306Z,6.37
2019-05-14T05:01:52.347Z,5.42
2019-05-14T05:04:20.301Z,4.72
2019-05-14T05:06:49.860Z,8.43
2019-05-14T05:09:19.791Z,12.95
2019-05-14T05:11:46.100Z,5.05
2019-05-14T05:14:13.283Z,5.10
2019-05-14T05:16:40.399Z,5.85
2019-05-14T05:19:10.144Z,5.00
2019-05-14T05:21:38.680Z,5.22
2019-05-14T05:24:05.478Z,7.33
2019-05-14T05:26:32.471Z,6.62
2019-05-14T05:29:06.330Z,5.28
2019-05-14T05:31:29.051Z,4.78
2019-05-14T05:33:58.190Z,4.90
2019-05-14T05:36:25.435Z,5.70
2019-05-14T05:38:52.735Z,11.00
2019-05-14T05:41:19.968Z,9.40
2019-05-14T05:43:48.369Z,4.47
2019-05-14T05:46:16.024Z,5.33
2019-05-14T05:48:43.011Z,7.42
2019-05-14T05:51:10.325Z,4.20
2019-05-14T05:53:39.352Z,3.72
2019-05-14T05:56:08.996Z,4.17
2019-05-14T05:58:35.542Z,4.97
2019-05-14T06:01:02.577Z,8.93
2019-05-14T06:03:30.521Z,3.25
2019-05-14T06:05:59.416Z,4.42
2019-05-14T06:08:28.168Z,5.53
2019-05-14T06:10:55.471Z,4.15
2019-05-14T06:13:22.840Z,3.60
2019-05-14T06:15:52.348Z,4.05
2019-05-14T06:18:21.987Z,3.52
2019-05-14T06:20:49.442Z,3.08
2019-05-14T06:23:18.837Z,3.60
2019-05-14T06:25:48.865Z,3.72
2019-05-14T06:28:14.835Z,2.47
2019-05-14T06:30:42.494Z,3.70
2019-05-14T06:33:10.785Z,3.33
2019-05-14T06:35:39.755Z,2.62
2019-05-14T06:38:08.883Z,3.80
2019-05-14T06:40:39.544Z,3.85
2019-05-14T06:43:06.330Z,2.10
2019-05-14T06:45:33.334Z,2.85
2019-05-14T06:48:00.321Z,3.92
2019-05-14T06:50:28.492Z,3.45
2019-05-14T06:52:57.995Z,4.28
2019-05-14T06:55:24.586Z,2.45
2019-05-14T06:57:51.636Z,2.60
2019-05-14T07:00:20.852Z,4.47
2019-05-14T07:02:49.178Z,3.45
2019-05-14T07:05:18.687Z,6.83
2019-05-14T07:07:45.576Z,2.30
2019-05-14T07:10:13.593Z,4.85
2019-05-14T07:12:40.803Z,1.80
2019-05-14T07:15:09.471Z,2.50
2019-05-14T07:17:38.454Z,1.95
2019-05-14T07:20:08.914Z,2.17
2019-05-14T07:22:38.706Z,2.25
2019-05-14T07:25:06.188Z,2.15
2019-05-14T07:27:33.483Z,2.25
2019-05-14T07:30:00.467Z,1.70
2019-05-14T07:32:28.667Z,3.30
2019-05-14T07:34:56.138Z,2.92
2019-05-14T07:37:23.460Z,2.40
2019-05-14T07:39:51.179Z,1.72
2019-05-14T07:42:18.529Z,3.40
2019-05-14T07:44:48.307Z,2.10
2019-05-14T07:47:14.881Z,3.87
2019-05-14T07:49:42.562Z,2.45
2019-05-14T07:52:09.642Z,2.17
2019-05-14T07:54:38.757Z,1.60
2019-05-14T07:57:05.652Z,1.65
2019-05-14T07:59:32.688Z,1.60
2019-05-14T08:01:59.951Z,2.72
2019-05-14T08:04:28.971Z,4.40
2019-05-14T08:06:58.244Z,4.15
2019-05-14T08:09:25.403Z,2.67
2019-05-14T08:11:52.477Z,1.40
2019-05-14T08:14:19.796Z,1.87
2019-05-14T08:16:48.945Z,2.02
2019-05-14T08:19:25.368Z,2.62
2019-05-14T08:21:45.042Z,3.90
2019-05-14T08:24:15.350Z,1.98
2019-05-14T08:26:42.959Z,2.70
2019-05-14T08:29:10.275Z,1.50
2019-05-14T08:31:38.343Z,2.10
2019-05-14T08:34:06.704Z,1.57
2019-05-14T08:36:34.838Z,1.77
2019-05-14T08:39:01.836Z,1.87
2019-05-14T08:41:29.456Z,1.50
2019-05-14T08:43:56.470Z,1.67
2019-05-14T08:46:25.392Z,2.35
2019-05-14T08:48:52.674Z,1.70
2019-05-14T08:51:20.984Z,5.75
2019-05-14T08:53:50.339Z,2.65
2019-05-14T08:56:19.231Z,1.67
2019-05-14T08:58:49.160Z,1.40
2019-05-14T09:01:15.340Z,1.90
2019-05-14T09:03:42.689Z,1.80
2019-05-14T09:06:09.712Z,1.80
2019-05-14T09:08:39.033Z,1.62
2019-05-14T09:11:05.755Z,1.60
2019-05-14T09:13:32.862Z,1.60
2019-05-14T09:16:00.291Z,1.60
2019-05-14T09:18:29.013Z,1.30
2019-05-14T09:20:58.214Z,2.05
2019-05-14T09:23:28.368Z,1.80
2019-05-14T09:25:54.994Z,1.85
2019-05-14T09:28:22.113Z,1.72
2019-05-14T09:30:49.634Z,1.77
2019-05-14T09:33:18.763Z,1.50
2019-05-14T09:35:49.423Z,1.52
2019-05-14T09:38:18.825Z,1.47
2019-05-14T09:40:48.706Z,1.50
2019-05-14T09:43:15.175Z,1.27
2019-05-14T09:45:42.163Z,2.40
2019-05-14T09:48:09.171Z,1.42
2019-05-14T09:50:38.360Z,1.60
2019-05-14T09:53:05.540Z,4.55
2019-05-14T09:55:32.532Z,1.60
2019-05-14T09:57:59.607Z,1.00
2019-05-14T10:00:26.811Z,1.70
2019-05-14T10:02:53.778Z,1.70
2019-05-14T10:05:20.776Z,1.40
2019-05-14T10:07:49.380Z,1.77
2019-05-14T10:10:19.618Z,1.98
2019-05-14T10:12:53.857Z,2.87
2019-05-14T10:15:15.586Z,1.07
2019-05-14T10:17:43.053Z,2.47
2019-05-14T10:20:11.280Z,1.80
2019-05-14T10:22:39.875Z,1.27
2019-05-14T10:25:09.114Z,1.10
2019-05-14T10:27:36.419Z,1.55
2019-05-14T10:30:05.077Z,2.12
2019-05-14T10:32:32.091Z,1.82
2019-05-14T10:34:59.167Z,2.75
2019-05-14T10:37:28.610Z,3.70
2019-05-14T10:39:55.075Z,2.30
2019-05-14T10:42:22.149Z,1.90
2019-05-14T10:44:49.584Z,1.40
2019-05-14T10:47:18.725Z,1.10
2019-05-14T10:49:45.810Z,1.10
2019-05-14T10:52:13.113Z,1.40
2019-05-14T10:54:53.867Z,1.30
2019-05-14T10:57:09.855Z,1.30
2019-05-14T10:59:37.157Z,1.20
2019-05-14T11:02:04.477Z,1.17
2019-05-14T11:04:34.403Z,1.20
2019-05-14T11:07:01.183Z,1.40
2019-05-14T11:09:28.609Z,1.15
2019-05-14T11:11:58.354Z,0.90
2019-05-14T11:14:25.608Z,1.45
2019-05-14T11:16:52.999Z,1.00
2019-05-14T11:19:20.124Z,1.15
2019-05-14T11:21:48.444Z,1.20
2019-05-14T11:24:18.741Z,1.07
2019-05-14T11:26:45.421Z,1.55
2019-05-14T11:29:12.661Z,1.00
2019-05-14T11:31:40.124Z,1.00
2019-05-14T11:34:08.315Z,0.90
2019-05-14T11:36:35.754Z,0.90
2019-05-14T11:39:05.743Z,0.95
2019-05-14T11:41:33.202Z,1.00
2019-05-14T11:44:00.213Z,1.10
2019-05-14T11:46:42.063Z,1.07
2019-05-14T11:48:59.487Z,1.05
2019-05-14T11:51:57.852Z,1.10
2019-05-14T11:53:55.335Z,1.22
2019-05-14T11:56:22.803Z,1.15
2019-05-14T11:58:50.467Z,1.15
2019-05-14T12:01:18.857Z,1.00
2019-05-14T12:03:49.924Z,1.20
2019-05-14T12:06:18.385Z,1.10
2019-05-14T12:08:44.948Z,1.00
2019-05-14T12:11:11.945Z,1.02
2019-05-14T12:13:39.541Z,1.20
2019-05-14T12:16:08.604Z,1.00
2019-05-14T12:18:41.280Z,1.20
2019-05-14T12:21:04.792Z,0.95
2019-05-14T12:23:31.776Z,1.10
2019-05-14T12:25:59.022Z,0.90
2019-05-14T12:28:28.938Z,1.20
2019-05-14T12:30:55.043Z,1.15
2019-05-14T12:33:22.035Z,0.88
2019-05-14T12:35:49.615Z,1.45
2019-05-14T12:38:18.753Z,1.60
2019-05-14T12:40:45.966Z,1.40
2019-05-14T12:43:12.934Z,1.00
2019-05-14T12:45:39.944Z,1.30
2019-05-14T12:48:09.331Z,1.47
2019-05-14T12:50:38.922Z,6.58
2019-05-14T12:53:05.682Z,1.00
2019-05-14T12:55:33.725Z,1.20
2019-05-14T12:58:01.802Z,1.10
2019-05-14T13:00:29.268Z,0.98
2019-05-14T13:02:58.515Z,1.17
2019-05-14T13:05:25.565Z,1.20
2019-05-14T13:07:52.559Z,1.00
2019-05-14T13:10:19.974Z,1.10
2019-05-14T13:12:48.319Z,1.15
2019-05-14T13:15:15.923Z,1.32
2019-05-14T13:17:43.008Z,1.30
2019-05-14T13:20:13.770Z,7.87
2019-05-14T13:22:45.897Z,1.50
2019-05-14T13:25:11.200Z,1.20
2019-05-14T13:27:39.223Z,1.32
2019-05-14T13:30:09.097Z,2.35
2019-05-14T13:32:39.066Z,3.12
2019-05-14T13:35:09.534Z,1.40
2019-05-14T13:37:39.553Z,1.65
2019-05-14T13:40:09.002Z,1.50
2019-05-14T13:42:35.274Z,1.98
2019-05-14T13:45:03.184Z,1.42
2019-05-14T13:47:31.484Z,1.25
2019-05-14T13:49:59.309Z,2.58
2019-05-14T13:52:29.274Z,1.05
2019-05-14T13:54:56.495Z,2.58
2019-05-14T13:57:23.871Z,1.50
2019-05-14T13:59:50.911Z,3.35
2019-05-14T14:02:19.018Z,1.50
2019-05-14T14:04:48.115Z,1.05
2019-05-14T14:07:15.387Z,1.15
2019-05-14T14:09:42.723Z,1.22
2019-05-14T14:12:10.061Z,1.20
2019-05-14T14:14:38.730Z,1.20
2019-05-14T14:17:06.443Z,2.65
2019-05-14T14:19:33.792Z,1.70
2019-05-14T14:22:00.746Z,1.50
2019-05-14T14:24:29.074Z,1.20
2019-05-14T14:26:58.376Z,1.35
2019-05-14T14:29:25.722Z,1.57
2019-05-14T14:31:53.058Z,1.77
2019-05-14T14:34:20.199Z,3.85
2019-05-14T14:36:49.897Z,1.50
2019-05-14T14:39:18.980Z,3.60
2019-05-14T14:41:45.794Z,2.37
2019-05-14T14:44:12.761Z,2.15
2019-05-14T14:46:40.075Z,1.50
2019-05-14T14:49:10.474Z,2.17
2019-05-14T14:51:41.825Z,2.25
2019-05-14T14:54:14.469Z,0.95
2019-05-14T14:56:34.968Z,1.70
2019-05-14T14:59:03.150Z,2.60
2019-05-14T15:01:30.520Z,2.20
2019-05-14T15:03:59.587Z,1.90
2019-05-14T15:06:30.315Z,1.20
2019-05-14T15:08:58.675Z,1.15
2019-05-14T15:11:24.847Z,1.42
2019-05-14T15:13:51.852Z,1.15
2019-05-14T15:16:20.057Z,1.40
2019-05-14T15:18:49.821Z,1.20
2019-05-14T15:21:19.172Z,1.10
2019-05-14T15:24:02.920Z,1.30
2019-05-14T15:26:15.005Z,1.00
2019-05-14T15:28:42.497Z,1.17
2019-05-14T15:31:09.618Z,1.07
2019-05-14T15:33:36.669Z,1.30
2019-05-14T15:36:03.901Z,1.47
2019-05-14T15:38:31.018Z,1.20
2019-05-14T15:40:59.621Z,1.17
2019-05-14T15:43:28.573Z,1.10
2019-05-14T15:45:56.046Z,0.95
2019-05-14T15:48:23.082Z,1.25
2019-05-14T15:50:50.485Z,1.02
2019-05-14T15:53:19.494Z,1.90
2019-05-14T15:55:48.943Z,1.90
2019-05-14T15:58:15.618Z,3.15
2019-05-14T16:00:42.757Z,1.20
2019-05-14T16:03:10.143Z,1.32
2019-05-14T16:05:39.204Z,1.57
2019-05-14T16:08:06.218Z,1.10
2019-05-14T16:10:33.276Z,1.47
2019-05-14T16:13:00.527Z,1.17
2019-05-14T16:15:28.169Z,1.10
2019-05-14T16:18:07.824Z,1.10
2019-05-14T16:20:24.540Z,1.30
2019-05-14T16:22:51.915Z,1.27
2019-05-14T16:25:19.130Z,0.88
2019-05-14T16:27:46.871Z,1.00
2019-05-14T16:30:14.643Z,1.17
2019-05-14T16:32:41.640Z,1.10
2019-05-14T16:35:09.157Z,1.15
2019-05-14T16:37:38.853Z,0.88
2019-05-14T16:40:05.780Z,1.10
2019-05-14T16:42:33.575Z,1.10
2019-05-14T16:45:01.123Z,1.30
2019-05-14T16:47:28.734Z,1.47
2019-05-14T16:49:55.927Z,1.30
2019-05-14T16:52:22.912Z,2.62
2019-05-14T16:54:50.310Z,1.70
2019-05-14T16:57:18.659Z,1.47
2019-05-14T16:59:46.113Z,1.50
2019-05-14T17:02:13.108Z,1.62
2019-05-14T17:04:40.241Z,1.37
2019-05-14T17:07:09.509Z,1.27
2019-05-14T17:09:38.445Z,1.02
2019-05-14T17:12:05.472Z,1.10
2019-05-14T17:14:32.481Z,1.70
2019-05-14T17:16:59.740Z,1.85
2019-05-14T17:19:29.636Z,2.52
2019-05-14T17:21:55.924Z,2.90
2019-05-14T17:24:23.190Z,3.10
2019-05-14T17:26:50.384Z,2.98
2019-05-14T17:29:19.165Z,3.77
2019-05-14T17:31:49.153Z,3.27
2019-05-14T17:34:15.263Z,2.08
2019-05-14T17:36:42.342Z,3.08
2019-05-14T17:39:09.646Z,3.90
2019-05-14T17:41:41.615Z,2.58
2019-05-14T17:44:05.711Z,2.80
2019-05-14T17:46:32.889Z,1.70
2019-05-14T17:49:00.354Z,4.15
2019-05-14T17:51:28.372Z,1.87
2019-05-14T17:53:58.726Z,3.37
2019-05-14T17:56:28.243Z,8.20
2019-05-14T17:58:54.935Z,4.33
2019-05-14T18:01:22.019Z,1.47
2019-05-14T18:03:49.370Z,1.27
2019-05-14T18:06:18.721Z,1.57
2019-05-14T18:08:45.621Z,1.80
2019-05-14T18:11:12.636Z,1.85
2019-05-14T18:13:39.959Z,2.00
2019-05-14T18:16:09.023Z,1.55
2019-05-14T18:18:36.270Z,1.30
2019-05-14T18:21:03.274Z,4.45
2019-05-14T18:23:30.282Z,2.22
2019-05-14T18:26:04.974Z,1.50
2019-05-14T18:28:28.635Z,2.17
2019-05-14T18:30:55.752Z,1.60
2019-05-14T18:33:22.747Z,1.70
2019-05-14T18:35:51.031Z,1.90
2019-05-14T18:38:19.457Z,1.72
2019-05-14T18:40:46.544Z,1.77
2019-05-14T18:43:14.134Z,1.57
2019-05-14T18:45:41.407Z,2.08
2019-05-14T18:48:08.574Z,2.10
2019-05-14T18:50:35.983Z,1.60
2019-05-14T18:53:02.977Z,1.57
2019-05-14T18:55:30.014Z,1.82
2019-05-14T18:57:59.333Z,2.25
2019-05-14T19:00:29.437Z,2.42
2019-05-14T19:02:57.258Z,2.42
2019-05-14T19:05:25.352Z,2.62
2019-05-14T19:07:53.094Z,2.87
2019-05-14T19:10:20.478Z,2.42
2019-05-14T19:12:49.989Z,2.15
2019-05-14T19:15:18.551Z,2.35
2019-05-14T19:17:45.715Z,3.08
2019-05-14T19:20:13.901Z,3.25
2019-05-14T19:22:41.231Z,3.70
2019-05-14T19:25:08.339Z,2.65
2019-05-14T19:27:37.806Z,2.37
2019-05-14T19:30:05.327Z,1.92
2019-05-14T19:32:32.485Z,1.92
2019-05-14T19:34:59.464Z,6.22
2019-05-14T19:37:26.438Z,1.70
2019-05-14T19:39:53.763Z,2.30
2019-05-14T19:42:20.762Z,2.00
2019-05-14T19:44:48.325Z,5.37
2019-05-14T19:47:15.749Z,1.77
2019-05-14T19:49:43.143Z,1.92
2019-05-14T19:52:10.540Z,1.60
2019-05-14T19:54:38.463Z,1.57
2019-05-14T19:57:05.698Z,2.20
2019-05-14T19:59:32.962Z,1.65
2019-05-14T20:02:00.432Z,1.98
2019-05-14T20:04:29.151Z,1.50
2019-05-14T20:06:56.873Z,2.35
2019-05-14T20:09:24.423Z,1.72
2019-05-14T20:11:52.226Z,2.08
2019-05-14T20:14:19.284Z,1.85
2019-05-14T20:16:48.927Z,2.05
2019-05-14T20:19:15.628Z,1.90
2019-05-14T20:21:42.733Z,1.57
2019-05-14T20:24:09.885Z,1.65
2019-05-14T20:26:39.047Z,2.27
2019-05-14T20:29:08.821Z,2.27
2019-05-14T20:31:36.126Z,1.75
2019-05-14T20:34:03.263Z,2.47
2019-05-14T20:36:30.300Z,1.70
2019-05-14T20:38:58.888Z,2.02
2019-05-14T20:41:28.586Z,1.95
2019-05-14T20:43:55.039Z,1.75
2019-05-14T20:46:24.363Z,1.87
2019-05-14T20:48:51.363Z,1.85
2019-05-14T20:51:19.731Z,1.67
2019-05-14T20:53:48.745Z,1.90
2019-05-14T20:56:15.908Z,1.90
2019-05-14T20:58:43.467Z,1.82
2019-05-14T21:01:11.561Z,2.02
2019-05-14T21:03:38.869Z,2.45
2019-05-14T21:06:06.326Z,2.02
2019-05-14T21:08:33.446Z,1.82
2019-05-14T21:11:01.116Z,1.87
2019-05-14T21:13:28.207Z,2.20
2019-05-14T21:15:55.525Z,2.08
2019-05-14T21:18:34.393Z,3.33
2019-05-14T21:20:52.144Z,2.40
2019-05-14T21:23:19.578Z,2.10
2019-05-14T21:25:48.364Z,2.25
2019-05-14T21:28:15.658Z,2.10
2019-05-14T21:30:42.734Z,2.02
2019-05-14T21:33:10.137Z,2.42
2019-05-14T21:35:39.069Z,1.87
2019-05-14T21:38:08.899Z,2.22
2019-05-14T21:40:35.556Z,1.90
2019-05-14T21:43:02.854Z,2.25
2019-05-14T21:45:29.972Z,4.33
2019-05-14T21:47:59.420Z,5.08
2019-05-14T21:50:28.761Z,3.98
2019-05-14T21:52:59.435Z,3.22
2019-05-14T21:55:25.193Z,2.77
2019-05-14T21:57:56.983Z,3.00
2019-05-14T22:00:30.876Z,2.15
2019-05-14T22:02:59.999Z,2.35
2019-05-14T22:05:28.389Z,2.08
2019-05-14T22:07:57.821Z,2.35
2019-05-14T22:10:24.783Z,1.90
2019-05-14T22:12:51.930Z,2.55
2019-05-14T22:15:19.367Z,2.52
2019-05-14T22:17:48.968Z,2.20
2019-05-14T22:20:19.003Z,1.85
2019-05-14T22:22:48.199Z,1.87
2019-05-14T22:25:14.869Z,1.90
2019-05-14T22:27:43.015Z,2.10
2019-05-14T22:30:10.357Z,1.75
2019-05-14T22:32:38.272Z,1.80
2019-05-14T22:35:08.555Z,1.92
2019-05-14T22:37:35.851Z,1.60
2019-05-14T22:40:03.261Z,1.95
2019-05-14T22:42:30.340Z,1.60
2019-05-14T22:44:58.300Z,1.85
2019-05-14T22:47:25.957Z,1.62
2019-05-14T22:49:53.106Z,1.55
2019-05-14T22:52:20.180Z,1.72
2019-05-14T22:54:49.052Z,2.00
2019-05-14T22:57:16.622Z,1.50
2019-05-14T22:59:43.755Z,1.90
2019-05-14T23:02:11.314Z,1.87
2019-05-14T23:04:38.648Z,1.80
2019-05-14T23:07:08.092Z,1.70
2019-05-14T23:09:34.925Z,1.80
2019-05-14T23:12:01.997Z,2.33
2019-05-14T23:14:29.462Z,1.80
2019-05-14T23:16:56.639Z,1.85
2019-05-14T23:19:23.787Z,1.80
2019-05-14T23:21:50.876Z,2.08
2019-05-14T23:24:18.945Z,1.40
2019-05-14T23:26:49.188Z,1.70
2019-05-14T23:29:16.379Z,1.70
2019-05-14T23:31:44.723Z,1.60
2019-05-14T23:34:12.310Z,1.82
2019-05-14T23:36:40.136Z,1.75
2019-05-14T23:39:08.861Z,1.85
2019-05-14T23:41:38.362Z,1.75
2019-05-14T23:44:05.413Z,1.80
2019-05-14T23:46:32.659Z,1.50
2019-05-14T23:48:59.888Z,1.72
2019-05-14T23:51:28.937Z,1.30
2019-05-14T23:53:56.477Z,1.70
2019-05-14T23:56:23.596Z,1.90
2019-05-14T23:58:57.765Z,1.57
